createdAt,value
2018-08-30T00:03:07.087Z,39.60
2018-08-30T00:07:59.608Z,39.90
2018-08-30T00:12:52.171Z,40.65
2018-08-30T00:17:44.720Z,39.94
2018-08-30T00:22:37.211Z,40.43
2018-08-30T00:27:29.776Z,41.10
2018-08-30T00:32:22.285Z,40.58
2018-08-30T00:37:14.783Z,41.32
2018-08-30T00:42:07.340Z,41.21
2018-08-30T00:46:59.861Z,41.39
2018-08-30T00:51:52.409Z,40.95
2018-08-30T00:56:45.009Z,41.14
2018-08-30T01:01:37.661Z,41.74
2018-08-30T01:06:30.221Z,42.11
2018-08-30T01:11:22.751Z,42.10
2018-08-30T01:16:15.336Z,41.86
2018-08-30T01:21:07.878Z,42.38
2018-08-30T01:26:01.459Z,42.24
2018-08-30T01:30:54.018Z,42.90
2018-08-30T01:35:46.583Z,42.33
2018-08-30T01:40:39.125Z,42.83
2018-08-30T01:45:31.814Z,43.24
2018-08-30T01:50:24.373Z,42.54
2018-08-30T01:55:16.903Z,43.46
2018-08-30T02:00:09.382Z,42.99
2018-08-30T02:05:01.944Z,43.00
2018-08-30T02:09:54.488Z,43.26
2018-08-30T02:14:47.066Z,43.88
2018-08-30T02:19:39.542Z,44.17
2018-08-30T02:24:32.107Z,43.78
2018-08-30T02:29:24.641Z,44.05
2018-08-30T02:34:17.111Z,43.68
2018-08-30T02:39:09.996Z,44.21
2018-08-30T02:44:02.675Z,43.94
2018-08-30T02:48:55.253Z,44.46
2018-08-30T02:53:47.764Z,44.72
2018-08-30T02:58:40.279Z,45.77
2018-08-30T03:03:32.834Z,45.30
2018-08-30T03:08:25.375Z,45.76
2018-08-30T03:13:17.850Z,45.53
2018-08-30T03:18:11.494Z,46.05
2018-08-30T03:23:04.162Z,46.18
2018-08-30T03:27:56.627Z,46.37
2018-08-30T03:32:49.167Z,45.92
2018-08-30T03:37:41.690Z,45.83
2018-08-30T03:42:34.220Z,45.67
2018-08-30T03:47:26.684Z,46.59
2018-08-30T03:52:19.252Z,46.46
2018-08-30T03:57:11.947Z,46.24
2018-08-30T04:02:04.541Z,46.50
2018-08-30T04:06:57.096Z,46.69
2018-08-30T04:11:49.672Z,46.13
2018-08-30T04:16:42.211Z,46.92
2018-08-30T04:21:35.504Z,47.19
2018-08-30T04:26:28.469Z,47.12
2018-08-30T04:31:21.101Z,47.81
2018-08-30T04:36:13.607Z,47.24
2018-08-30T04:41:06.229Z,47.13
2018-08-30T04:45:58.785Z,47.40
2018-08-30T04:50:51.323Z,47.62
2018-08-30T04:55:43.869Z,47.78
2018-08-30T05:00:36.487Z,47.99
2018-08-30T05:05:29.089Z,48.67
2018-08-30T05:10:21.900Z,48.78
2018-08-30T05:15:14.576Z,48.24
2018-08-30T05:20:07.311Z,48.45
2018-08-30T05:25:00.124Z,48.36
2018-08-30T05:29:52.853Z,49.80
2018-08-30T05:34:45.317Z,49.55
2018-08-30T05:39:37.965Z,49.13
2018-08-30T05:44:30.534Z,49.54
2018-08-30T05:49:23.101Z,50.95
2018-08-30T05:54:15.829Z,51.21
2018-08-30T05:59:08.595Z,51.64
2018-08-30T06:04:01.149Z,51.93
2018-08-30T06:08:53.750Z,52.73
2018-08-30T06:13:46.441Z,52.72
2018-08-30T06:18:39.018Z,52.52
2018-08-30T06:23:31.609Z,53.53
2018-08-30T06:28:24.192Z,54.37
2018-08-30T06:33:16.760Z,54.39
2018-08-30T06:38:09.305Z,54.52
2018-08-30T06:43:01.899Z,54.60
2018-08-30T06:47:54.595Z,55.10
2018-08-30T06:52:47.204Z,55.43
2018-08-30T06:57:39.944Z,55.98
2018-08-30T07:02:32.518Z,56.72
2018-08-30T07:07:25.393Z,56.42
2018-08-30T07:12:17.945Z,57.42
2018-08-30T07:17:10.495Z,57.84
2018-08-30T07:22:03.096Z,58.48
2018-08-30T07:26:55.732Z,59.46
2018-08-30T07:31:48.249Z,59.44
2018-08-30T07:36:40.805Z,60.54
2018-08-30T07:41:33.356Z,60.87
2018-08-30T07:46:26.045Z,63.03
2018-08-30T07:51:18.552Z,63.32
2018-08-30T07:56:11.097Z,65.17
2018-08-30T08:01:03.626Z,66.35
2018-08-30T08:05:56.176Z,67.02
2018-08-30T08:10:48.719Z,68.10
2018-08-30T08:15:41.436Z,68.08
2018-08-30T08:20:34.088Z,69.71
2018-08-30T08:25:28.228Z,69.55
2018-08-30T08:30:20.735Z,69.81
2018-08-30T08:35:13.295Z,70.66
2018-08-30T08:40:05.806Z,70.50
2018-08-30T08:44:58.424Z,70.80
2018-08-30T08:49:51.719Z,71.03
2018-08-30T08:54:44.272Z,71.77
2018-08-30T08:59:36.800Z,71.63
2018-08-30T09:04:29.534Z,71.87
2018-08-30T09:09:22.129Z,71.94
2018-08-30T09:14:14.699Z,72.11
2018-08-30T09:19:07.556Z,72.63
2018-08-30T09:24:00.195Z,74.12
2018-08-30T09:28:52.804Z,74.15
2018-08-30T09:33:45.337Z,73.89
2018-08-30T09:38:37.898Z,74.61
2018-08-30T09:43:30.796Z,74.08
2018-08-30T09:48:23.279Z,74.44
2018-08-30T09:53:15.785Z,73.54
2018-08-30T09:58:08.463Z,73.53
2018-08-30T10:03:01.075Z,73.91
2018-08-30T10:07:53.546Z,74.29
2018-08-30T10:12:46.065Z,74.76
2018-08-30T10:17:38.554Z,74.20
2018-08-30T10:22:31.153Z,74.95
2018-08-30T10:27:23.706Z,75.16
2018-08-30T10:32:16.232Z,74.43
2018-08-30T10:37:08.845Z,75.28
2018-08-30T10:42:01.381Z,74.98
2018-08-30T10:46:53.924Z,75.95
2018-08-30T10:51:46.453Z,76.08
2018-08-30T10:56:39.066Z,76.71
2018-08-30T11:01:31.884Z,76.00
2018-08-30T11:06:24.434Z,76.76
2018-08-30T11:11:16.988Z,76.12
2018-08-30T11:16:09.547Z,76.02
2018-08-30T11:21:02.064Z,76.40
2018-08-30T11:25:54.633Z,76.66
2018-08-30T11:30:47.188Z,75.99
2018-08-30T11:35:39.801Z,75.94
2018-08-30T11:40:32.334Z,76.11
2018-08-30T11:45:24.957Z,76.38
2018-08-30T11:50:17.478Z,76.71
2018-08-30T11:55:09.993Z,77.17
2018-08-30T12:00:02.504Z,77.07
2018-08-30T12:04:55.081Z,77.41
2018-08-30T12:09:47.764Z,77.28
2018-08-30T12:14:40.315Z,76.97
2018-08-30T12:19:32.953Z,75.61
2018-08-30T12:24:25.534Z,75.75
2018-08-30T12:29:18.081Z,74.88
2018-08-30T12:34:10.756Z,74.48
2018-08-30T12:39:04.308Z,73.92
2018-08-30T12:43:57.109Z,73.58
2018-08-30T12:48:49.795Z,72.36
2018-08-30T12:53:42.421Z,71.70
2018-08-30T12:58:35.056Z,72.50
2018-08-30T13:03:27.784Z,72.45
2018-08-30T13:08:20.352Z,72.02
2018-08-30T13:13:13.060Z,72.54
2018-08-30T13:18:05.451Z,71.29
2018-08-30T13:22:58.359Z,70.90
2018-08-30T13:27:50.895Z,71.03
2018-08-30T13:32:43.743Z,71.44
2018-08-30T13:37:36.188Z,70.08
2018-08-30T13:42:28.870Z,71.00
2018-08-30T13:47:21.512Z,70.81
2018-08-30T13:52:13.938Z,70.11
2018-08-30T13:57:06.995Z,69.47
2018-08-30T14:01:59.585Z,69.31
2018-08-30T14:06:52.274Z,69.28
2018-08-30T14:11:44.880Z,70.12
2018-08-30T14:16:37.189Z,69.71
2018-08-30T14:21:29.759Z,69.31
2018-08-30T14:26:22.323Z,69.36
2018-08-30T14:31:14.910Z,69.26
2018-08-30T14:36:07.566Z,69.80
2018-08-30T14:41:00.381Z,69.24
2018-08-30T14:45:53.088Z,68.40
2018-08-30T14:50:45.605Z,68.61
2018-08-30T14:55:38.262Z,68.01
2018-08-30T15:00:30.885Z,68.07
2018-08-30T15:05:23.563Z,67.84
2018-08-30T15:10:16.060Z,68.43
2018-08-30T15:15:08.739Z,67.51
2018-08-30T15:20:01.473Z,68.59
2018-08-30T15:24:54.058Z,68.06
2018-08-30T15:29:46.751Z,68.23
2018-08-30T15:34:39.453Z,68.18
2018-08-30T15:39:32.200Z,67.79
2018-08-30T15:44:24.743Z,68.37
2018-08-30T15:49:18.567Z,67.79
2018-08-30T15:54:11.231Z,67.50
2018-08-30T15:59:03.758Z,70.01
2018-08-30T16:03:56.466Z,71.66
2018-08-30T16:08:49.161Z,72.78
2018-08-30T16:13:42.410Z,74.01
2018-08-30T16:18:35.088Z,75.78
2018-08-30T16:23:29.630Z,76.85
2018-08-30T16:28:23.073Z,76.85
2018-08-30T16:33:15.819Z,78.19
2018-08-30T16:38:08.538Z,78.70
2018-08-30T16:43:01.165Z,78.76
2018-08-30T16:47:53.770Z,79.15
2018-08-30T16:52:46.301Z,80.04
2018-08-30T16:57:38.765Z,80.72
2018-08-30T17:02:31.275Z,80.36
2018-08-30T17:07:23.959Z,79.99
2018-08-30T17:12:16.534Z,80.12
2018-08-30T17:17:09.236Z,80.34
2018-08-30T17:22:01.797Z,80.38
2018-08-30T17:26:54.313Z,79.97
2018-08-30T17:31:46.933Z,79.87
2018-08-30T17:36:39.579Z,80.49
2018-08-30T17:41:32.095Z,79.94
2018-08-30T17:46:24.816Z,79.65
2018-08-30T17:51:17.298Z,79.46
2018-08-30T17:56:09.896Z,79.40
2018-08-30T18:01:02.391Z,80.10
2018-08-30T18:05:55.056Z,80.45
2018-08-30T18:10:47.629Z,79.44
2018-08-30T18:15:40.184Z,79.99
2018-08-30T18:20:32.879Z,80.25
2018-08-30T18:25:25.491Z,79.32
2018-08-30T18:30:18.145Z,78.68
2018-08-30T18:35:10.673Z,79.58
2018-08-30T18:40:03.346Z,79.21
2018-08-30T18:44:55.976Z,79.69
2018-08-30T18:49:48.599Z,79.69
2018-08-30T18:54:41.191Z,79.58
2018-08-30T18:59:33.679Z,79.86
2018-08-30T19:04:26.248Z,79.23
2018-08-30T19:09:18.971Z,79.57
2018-08-30T19:14:11.724Z,79.77
2018-08-30T19:19:12.543Z,80.05
2018-08-30T19:24:05.132Z,80.15
2018-08-30T19:28:57.726Z,79.77
2018-08-30T19:33:50.388Z,79.66
2018-08-30T19:38:42.963Z,79.89
2018-08-30T19:43:37.054Z,79.11
2018-08-30T19:48:29.652Z,79.27
2018-08-30T19:53:22.174Z,78.81
2018-08-30T19:58:14.700Z,79.12
2018-08-30T20:03:07.219Z,79.30
2018-08-30T20:07:59.771Z,78.49
2018-08-30T20:12:52.296Z,78.78
2018-08-30T20:17:44.856Z,78.57
2018-08-30T20:22:37.394Z,78.71
2018-08-30T20:27:29.978Z,77.61
2018-08-30T20:32:23.426Z,77.87
2018-08-30T20:37:15.881Z,77.73
2018-08-30T20:42:08.656Z,77.19
2018-08-30T20:47:02.249Z,77.43
2018-08-30T20:51:54.751Z,76.69
2018-08-30T20:56:47.268Z,76.66
2018-08-30T21:01:39.744Z,76.55
2018-08-30T21:06:32.297Z,76.18
2018-08-30T21:11:24.808Z,76.37
2018-08-30T21:16:17.495Z,76.49
2018-08-30T21:21:10.214Z,76.26
2018-08-30T21:26:02.892Z,76.51
2018-08-30T21:30:55.382Z,75.77
2018-08-30T21:35:47.878Z,76.21
2018-08-30T21:40:40.395Z,76.08
2018-08-30T21:45:32.889Z,75.62
2018-08-30T21:50:25.464Z,76.36
2018-08-30T21:55:18.041Z,75.76
2018-08-30T22:00:10.611Z,75.70
2018-08-30T22:05:03.355Z,76.04
2018-08-30T22:09:56.127Z,76.01
2018-08-30T22:14:48.708Z,74.96
2018-08-30T22:19:41.323Z,74.89
2018-08-30T22:24:33.923Z,74.16
2018-08-30T22:29:26.478Z,73.96
2018-08-30T22:34:19.005Z,73.61
2018-08-30T22:39:11.579Z,72.73
2018-08-30T22:44:04.234Z,72.21
2018-08-30T22:48:56.808Z,72.10
2018-08-30T22:53:49.508Z,72.02
2018-08-30T22:58:42.228Z,71.56
2018-08-30T23:03:34.971Z,71.40
2018-08-30T23:08:27.529Z,71.43
2018-08-30T23:13:19.989Z,70.96
2018-08-30T23:18:12.599Z,70.75
2018-08-30T23:23:05.211Z,70.38
2018-08-30T23:27:57.765Z,69.47
2018-08-30T23:32:50.320Z,69.54
2018-08-30T23:37:42.906Z,68.92
2018-08-30T23:42:35.471Z,69.02
2018-08-30T23:47:27.992Z,69.43
2018-08-30T23:52:20.595Z,68.95
2018-08-30T23:57:13.306Z,68.51
